createdAt,value
2022-10-04T00:00:58.199Z,15.1
2022-10-04T00:03:29.260Z,15.1
2022-10-04T00:06:01.094Z,15.1
2022-10-04T00:08:33.885Z,15.2
2022-10-04T00:11:05.321Z,15.1
2022-10-04T00:13:37.141Z,15.1
2022-10-04T00:16:08.416Z,15.1
2022-10-04T00:18:39.595Z,15.1
2022-10-04T00:21:11.041Z,15.1
2022-10-04T00:23:42.072Z,15.1
2022-10-04T00:26:13.415Z,15
2022-10-04T00:28:45.010Z,14.9
2022-10-04T00:31:16.757Z,14.9
2022-10-04T00:33:47.997Z,14.9
2022-10-04T00:36:19.263Z,14.8
2022-10-04T00:38:50.560Z,14.9
2022-10-04T00:41:21.626Z,14.9
2022-10-04T00:43:53.251Z,14.7
2022-10-04T00:46:24.425Z,14.8
2022-10-04T00:48:55.666Z,14.8
2022-10-04T00:51:26.708Z,14.7
2022-10-04T00:53:58.196Z,14.8
2022-10-04T00:56:27.645Z,14.8
2022-10-04T00:58:58.787Z,14.7
2022-10-04T01:01:28.990Z,14.6
2022-10-04T01:03:58.593Z,14.4
2022-10-04T01:06:29.651Z,14.5
2022-10-04T01:09:01.206Z,14.4
2022-10-04T01:11:33.124Z,14.5
2022-10-04T01:14:04.293Z,14.5
2022-10-04T01:16:35.634Z,14.5
2022-10-04T01:19:06.693Z,14.7
2022-10-04T01:21:37.608Z,14.5
2022-10-04T01:24:08.477Z,14.6
2022-10-04T01:26:39.803Z,14.5
2022-10-04T01:29:10.931Z,14.3
2022-10-04T01:31:40.975Z,14.3
2022-10-04T01:34:12.050Z,14.1
2022-10-04T01:36:43.771Z,14.3
2022-10-04T01:39:15.712Z,14.2
2022-10-04T01:41:47.199Z,14.2
2022-10-04T01:44:18.328Z,14.3
2022-10-04T01:46:50.719Z,14.3
2022-10-04T01:49:21.807Z,14.3
2022-10-04T01:51:53.013Z,14.3
2022-10-04T01:54:24.586Z,14.3
2022-10-04T01:56:55.910Z,14.2
2022-10-04T01:59:26.714Z,14.1
2022-10-04T02:01:58.309Z,14.1
2022-10-04T02:04:30.163Z,14
2022-10-04T02:07:01.457Z,14
2022-10-04T02:09:33.085Z,13.9
2022-10-04T02:12:04.332Z,14.1
2022-10-04T02:14:36.232Z,14.1
2022-10-04T02:17:08.442Z,13.9
2022-10-04T02:19:39.371Z,14
2022-10-04T02:22:10.528Z,13.9
2022-10-04T02:24:42.114Z,13.8
2022-10-04T02:27:13.770Z,13.9
2022-10-04T02:29:45.900Z,13.8
2022-10-04T02:32:16.780Z,13.9
2022-10-04T02:34:48.290Z,13.9
2022-10-04T02:37:19.798Z,13.9
2022-10-04T02:39:51.167Z,13.9
2022-10-04T02:42:23.633Z,13.9
2022-10-04T02:44:54.417Z,13.8
2022-10-04T02:47:25.448Z,13.9
2022-10-04T02:49:58.205Z,13.9
2022-10-04T02:52:29.572Z,13.8
2022-10-04T02:55:02.624Z,13.9
2022-10-04T02:57:34.410Z,13.9
2022-10-04T03:00:05.605Z,13.8
2022-10-04T03:02:37.115Z,13.7
2022-10-04T03:05:08.999Z,13.7
2022-10-04T03:07:40.295Z,13.6
2022-10-04T03:10:12.230Z,13.7
2022-10-04T03:12:43.983Z,13.6
2022-10-04T03:15:17.708Z,13.6
2022-10-04T03:17:49.503Z,13.6
2022-10-04T03:20:21.300Z,13.8
2022-10-04T03:22:53.352Z,13.7
2022-10-04T03:25:24.101Z,13.7
2022-10-04T03:27:56.758Z,13.7
2022-10-04T03:30:28.290Z,13.7
2022-10-04T03:32:59.808Z,13.7
2022-10-04T03:35:31.644Z,13.6
2022-10-04T03:38:02.705Z,13.7
2022-10-04T03:40:34.181Z,13.6
2022-10-04T03:43:06.120Z,13.6
2022-10-04T03:45:37.291Z,13.6
2022-10-04T03:48:08.295Z,13.7
2022-10-04T03:50:39.423Z,13.7
2022-10-04T03:53:11.511Z,13.7
2022-10-04T03:55:43.108Z,13.7
2022-10-04T03:58:13.190Z,13.7
2022-10-04T04:00:44.782Z,13.7
2022-10-04T04:03:16.605Z,13.7
2022-10-04T04:05:48.545Z,13.6
2022-10-04T04:08:19.467Z,13.7
2022-10-04T04:10:50.354Z,13.8
2022-10-04T04:13:22.482Z,13.6
2022-10-04T04:15:54.749Z,13.6
2022-10-04T04:18:26.043Z,13.6
2022-10-04T04:20:56.661Z,13.7
2022-10-04T04:23:29.438Z,13.7
2022-10-04T04:25:59.018Z,13.6
2022-10-04T04:28:29.842Z,13.6
2022-10-04T04:31:01.104Z,13.6
2022-10-04T04:33:32.700Z,13.5
2022-10-04T04:36:04.149Z,13.6
2022-10-04T04:38:35.247Z,13.5
2022-10-04T04:41:06.423Z,13.4
2022-10-04T04:43:37.272Z,13.5
2022-10-04T04:46:26.462Z,13.5
2022-10-04T04:48:39.886Z,13.4
2022-10-04T04:51:11.541Z,13.5
2022-10-04T04:53:44.652Z,13.5
2022-10-04T04:56:18.065Z,13.5
2022-10-04T04:58:47.230Z,13.6
2022-10-04T05:01:20.050Z,13.6
2022-10-04T05:03:51.333Z,13.6
2022-10-04T05:06:22.823Z,13.6
2022-10-04T05:08:54.581Z,13.7
2022-10-04T05:11:28.226Z,13.7
2022-10-04T05:13:59.981Z,13.7
2022-10-04T05:16:31.096Z,13.8
2022-10-04T05:19:01.566Z,13.9
2022-10-04T05:21:33.304Z,14
2022-10-04T05:24:04.293Z,13.9
2022-10-04T05:26:34.857Z,14
2022-10-04T05:29:06.350Z,14.1
2022-10-04T05:31:37.024Z,14.1
2022-10-04T05:34:08.868Z,14.3
2022-10-04T05:36:39.758Z,14.4
2022-10-04T05:39:12.242Z,14.4
2022-10-04T05:41:42.815Z,14.5
2022-10-04T05:44:14.413Z,14.6
2022-10-04T05:46:47.502Z,14.6
2022-10-04T05:49:22.792Z,14.6
2022-10-04T05:51:53.826Z,14.7
2022-10-04T05:54:25.064Z,14.7
2022-10-04T05:56:54.786Z,14.7
2022-10-04T05:59:26.529Z,14.7
2022-10-04T06:01:57.340Z,14.8
2022-10-04T06:04:31.488Z,14.8
2022-10-04T06:07:03.387Z,14.9
2022-10-04T06:09:34.236Z,15.1
2022-10-04T06:12:05.302Z,15
2022-10-04T06:14:36.545Z,15.1
2022-10-04T06:17:07.598Z,15.3
2022-10-04T06:19:38.658Z,15.3
2022-10-04T06:22:09.545Z,15.4
2022-10-04T06:24:40.797Z,15.4
2022-10-04T06:27:11.603Z,15.3
2022-10-04T06:29:46.470Z,15.4
2022-10-04T06:32:16.977Z,15.5
2022-10-04T06:34:50.391Z,15.6
2022-10-04T06:37:22.005Z,15.8
2022-10-04T06:39:52.662Z,15.9
2022-10-04T06:42:23.487Z,15.9
2022-10-04T06:44:54.779Z,15.9
2022-10-04T06:47:26.283Z,15.9
2022-10-04T06:49:58.135Z,16
2022-10-04T06:52:30.719Z,16.1
2022-10-04T06:55:04.192Z,16.2
2022-10-04T06:57:37.496Z,16.3
2022-10-04T07:00:09.070Z,16.3
2022-10-04T07:02:40.689Z,16.4
2022-10-04T07:05:12.133Z,16.4
2022-10-04T07:07:43.643Z,16.4
2022-10-04T07:10:12.597Z,16.5
2022-10-04T07:12:43.776Z,16.5
2022-10-04T07:15:15.822Z,16.6
2022-10-04T07:17:46.954Z,16.6
2022-10-04T07:20:20.959Z,16.7
2022-10-04T07:22:52.087Z,16.8
2022-10-04T07:25:22.792Z,16.8
2022-10-04T07:27:53.577Z,16.9
2022-10-04T07:30:24.387Z,17
2022-10-04T07:32:55.668Z,17.1
2022-10-04T07:35:27.096Z,17
2022-10-04T07:37:57.702Z,17.1
2022-10-04T07:40:28.992Z,17.1
2022-10-04T07:43:00.162Z,17.1
2022-10-04T07:45:30.891Z,17.3
2022-10-04T07:48:01.709Z,17.2
2022-10-04T07:50:32.985Z,17.4
2022-10-04T07:53:08.634Z,17.6
2022-10-04T07:55:35.820Z,17.7
2022-10-04T07:58:06.860Z,17.7
2022-10-04T08:00:37.697Z,17.7
2022-10-04T08:03:08.325Z,17.8
2022-10-04T08:05:39.060Z,17.6
2022-10-04T08:08:12.018Z,17.6
2022-10-04T08:10:43.630Z,17.7
2022-10-04T08:13:14.848Z,17.9
2022-10-04T08:15:45.764Z,18
2022-10-04T08:18:16.879Z,18
2022-10-04T08:20:47.885Z,18
2022-10-04T08:23:18.679Z,18.1
2022-10-04T08:25:48.196Z,18.1
2022-10-04T08:28:19.102Z,18
2022-10-04T08:30:50.761Z,18
2022-10-04T08:33:21.992Z,18
2022-10-04T08:35:52.562Z,17.9
2022-10-04T08:38:23.663Z,18
2022-10-04T08:40:54.711Z,18
2022-10-04T08:43:25.952Z,18.1
2022-10-04T08:45:56.662Z,18
2022-10-04T08:48:29.697Z,18
2022-10-04T08:51:01.186Z,17.9
2022-10-04T08:53:33.946Z,17.9
2022-10-04T08:56:09.228Z,17.9
2022-10-04T08:58:39.990Z,17.8
2022-10-04T09:01:11.257Z,17.9
2022-10-04T09:03:41.861Z,17.9
2022-10-04T09:06:12.594Z,18
2022-10-04T09:08:43.367Z,18
2022-10-04T09:13:46.282Z,18
2022-10-04T09:16:18.120Z,18
2022-10-04T09:18:48.394Z,18
2022-10-04T09:21:19.377Z,18
2022-10-04T09:23:50.500Z,18
2022-10-04T09:26:22.672Z,18.1
2022-10-04T09:28:53.636Z,18
2022-10-04T09:31:24.673Z,18
2022-10-04T09:33:55.289Z,18.1
2022-10-04T09:36:26.515Z,18.2
2022-10-04T09:39:11.731Z,18.1
2022-10-04T09:41:31.846Z,18.1
2022-10-04T09:44:04.849Z,18.3
2022-10-04T09:46:36.260Z,18.2
2022-10-04T09:49:08.910Z,18.2
2022-10-04T09:51:39.977Z,18.3
2022-10-04T09:54:10.728Z,18.4
2022-10-04T09:56:41.968Z,18.4
2022-10-04T09:59:13.610Z,18.5
2022-10-04T10:01:45.188Z,18.6
2022-10-04T10:04:15.931Z,18.5
2022-10-04T10:06:46.869Z,18.5
2022-10-04T10:09:17.721Z,18.5
2022-10-04T10:11:48.865Z,18.4
2022-10-04T10:14:19.781Z,18.5
2022-10-04T10:16:52.743Z,18.4
2022-10-04T10:19:28.120Z,18.5
2022-10-04T10:21:54.769Z,18.5
2022-10-04T10:24:25.801Z,18.5
2022-10-04T10:26:58.420Z,18.6
2022-10-04T10:29:29.247Z,18.6
2022-10-04T10:31:59.783Z,18.9
2022-10-04T10:34:30.339Z,19
2022-10-04T10:36:59.767Z,19.1
2022-10-04T10:39:30.637Z,19.3
2022-10-04T10:42:01.698Z,19.3
2022-10-04T10:44:32.252Z,19.2
2022-10-04T10:47:02.906Z,19.2
2022-10-04T10:49:32.118Z,19.3
2022-10-04T10:52:03.352Z,19.3
2022-10-04T10:54:36.687Z,19.3
2022-10-04T10:57:07.702Z,19.3
2022-10-04T10:59:39.761Z,19.4
2022-10-04T11:02:11.005Z,19.4
2022-10-04T11:04:41.161Z,19.3
2022-10-04T11:07:11.572Z,19.3
2022-10-04T11:09:42.267Z,19.3
2022-10-04T11:12:13.725Z,19.5
2022-10-04T11:14:44.311Z,19.5
2022-10-04T11:17:17.281Z,19.6
2022-10-04T11:19:48.373Z,19.6
2022-10-04T11:22:19.889Z,19.7
2022-10-04T11:24:53.121Z,19.5
2022-10-04T11:27:23.801Z,19.5
2022-10-04T11:29:54.751Z,19.5
2022-10-04T11:32:26.515Z,19.4
2022-10-04T11:34:57.327Z,19.3
2022-10-04T11:37:28.625Z,19.4
2022-10-04T11:39:59.191Z,19.3
2022-10-04T11:42:29.133Z,19.1
2022-10-04T11:45:00.320Z,19.2
2022-10-04T11:47:31.162Z,19.1
2022-10-04T11:50:02.525Z,19.2
2022-10-04T11:52:34.795Z,19.3
2022-10-04T11:55:06.185Z,19.3
2022-10-04T11:57:37.063Z,19.4
2022-10-04T12:00:09.452Z,19.4
2022-10-04T12:02:40.366Z,19.4
2022-10-04T12:05:12.192Z,19.5
2022-10-04T12:07:43.968Z,19.6
2022-10-04T12:10:14.695Z,19.6
2022-10-04T12:12:45.600Z,19.6
2022-10-04T12:15:16.326Z,19.9
2022-10-04T12:17:46.989Z,20.1
2022-10-04T12:20:17.840Z,20.2
2022-10-04T12:22:49.421Z,20.3
2022-10-04T12:25:20.535Z,20.4
2022-10-04T12:27:50.757Z,20.6
2022-10-04T12:30:21.724Z,20.7
2022-10-04T12:32:55.584Z,20.5
2022-10-04T12:35:23.174Z,20.5
2022-10-04T12:37:54.342Z,20.3
2022-10-04T12:40:26.195Z,20
2022-10-04T12:42:59.635Z,20.1
2022-10-04T12:45:30.605Z,20.1
2022-10-04T12:48:01.161Z,20
2022-10-04T12:50:32.392Z,19.9
2022-10-04T12:53:03.658Z,19.9
2022-10-04T12:55:34.713Z,19.8
2022-10-04T12:58:09.323Z,19.8
2022-10-04T13:00:40.204Z,19.8
2022-10-04T13:03:11.098Z,19.8
2022-10-04T13:05:41.369Z,19.7
2022-10-04T13:08:12.544Z,19.6
2022-10-04T13:10:43.690Z,19.5
2022-10-04T13:13:15.089Z,19.4
2022-10-04T13:18:20.706Z,19.4
2022-10-04T13:20:50.449Z,19.4
2022-10-04T13:23:21.532Z,19.2
2022-10-04T13:25:52.769Z,19.3
2022-10-04T13:28:26.387Z,19.1
2022-10-04T13:30:59.148Z,19
2022-10-04T13:33:31.924Z,19
2022-10-04T13:36:07.437Z,19
2022-10-04T13:38:38.865Z,18.9
2022-10-04T13:41:10.006Z,18.8
2022-10-04T13:43:51.345Z,18.7
2022-10-04T13:46:23.088Z,18.7
2022-10-04T13:48:54.896Z,18.6
2022-10-04T13:51:25.821Z,18.8
2022-10-04T13:53:56.768Z,18.9
2022-10-04T13:56:26.277Z,18.8
2022-10-04T13:58:57.064Z,18.7
2022-10-04T14:01:30.145Z,18.5
2022-10-04T14:04:02.165Z,18.5
2022-10-04T14:06:34.361Z,18.5
2022-10-04T14:09:07.491Z,18.4
2022-10-04T14:11:40.176Z,18.5
2022-10-04T14:14:11.274Z,18.6
2022-10-04T14:16:43.623Z,18.4
2022-10-04T14:19:14.652Z,18.5
2022-10-04T14:21:47.140Z,18.5
2022-10-04T14:24:18.104Z,18.4
2022-10-04T14:26:49.099Z,18.4
2022-10-04T14:29:20.640Z,18.5
2022-10-04T14:31:52.671Z,18.4
2022-10-04T14:34:24.068Z,18.5
2022-10-04T14:36:54.844Z,18.4
2022-10-04T14:39:26.101Z,18.3
2022-10-04T14:41:58.614Z,18.3
2022-10-04T14:44:29.833Z,18.4
2022-10-04T14:47:00.988Z,18.2
2022-10-04T14:49:32.883Z,18.3
2022-10-04T14:52:04.727Z,18.3
2022-10-04T14:54:36.646Z,18.2
2022-10-04T14:57:10.339Z,18.2
2022-10-04T14:59:41.860Z,18.1
2022-10-04T15:02:13.469Z,18.1
2022-10-04T15:04:46.263Z,18
2022-10-04T15:07:18.367Z,18
2022-10-04T15:09:49.994Z,18.1
2022-10-04T15:12:32.937Z,18
2022-10-04T15:14:53.731Z,18.1
2022-10-04T15:17:24.789Z,18.1
2022-10-04T15:19:55.861Z,18
2022-10-04T15:22:27.490Z,18
2022-10-04T15:24:58.884Z,18
2022-10-04T15:27:32.781Z,18
2022-10-04T15:30:05.741Z,17.9
2022-10-04T15:32:37.710Z,17.7
2022-10-04T15:35:07.809Z,17.8
2022-10-04T15:37:39.070Z,17.8
2022-10-04T15:40:10.412Z,17.9
2022-10-04T15:42:41.718Z,17.9
2022-10-04T15:45:14.598Z,17.8
2022-10-04T15:47:46.447Z,17.8
2022-10-04T15:50:18.283Z,17.5
2022-10-04T15:52:49.265Z,17.5
2022-10-04T15:55:21.843Z,17.6
2022-10-04T15:57:54.014Z,17.7
2022-10-04T16:00:25.513Z,17.6
2022-10-04T16:02:56.811Z,17.5
2022-10-04T16:05:28.871Z,17.5
2022-10-04T16:07:59.777Z,17.5
2022-10-04T16:10:32.192Z,17.3
2022-10-04T16:13:07.328Z,17.3
2022-10-04T16:15:39.623Z,17.4
2022-10-04T16:18:10.796Z,17.4
2022-10-04T16:20:43.449Z,17.2
2022-10-04T16:23:17.488Z,17
2022-10-04T16:25:46.872Z,17.1
2022-10-04T16:28:19.252Z,17.1
2022-10-04T16:33:29.273Z,17
2022-10-04T16:36:01.982Z,16.8
2022-10-04T16:38:32.636Z,16.8
2022-10-04T16:41:04.406Z,16.7
2022-10-04T16:43:36.520Z,16.9
2022-10-04T16:46:09.239Z,16.8
2022-10-04T16:48:40.088Z,16.7
2022-10-04T16:51:11.623Z,16.8
2022-10-04T16:53:42.712Z,16.7
2022-10-04T16:56:14.921Z,16.7
2022-10-04T16:58:45.865Z,16.8
2022-10-04T17:01:17.182Z,16.6
2022-10-04T17:03:48.586Z,16.5
2022-10-04T17:06:19.474Z,16.6
2022-10-04T17:08:51.682Z,16.6
2022-10-04T17:11:22.751Z,16.5
2022-10-04T17:13:56.586Z,16.4
2022-10-04T17:16:25.465Z,16.3
2022-10-04T17:18:59.317Z,16.3
2022-10-04T17:21:30.499Z,16.3
2022-10-04T17:24:01.994Z,16.3
2022-10-04T17:26:37.417Z,16.2
2022-10-04T17:29:08.540Z,16.3
2022-10-04T17:31:39.773Z,16.2
2022-10-04T17:34:11.199Z,16.3
2022-10-04T17:36:42.702Z,16.4
2022-10-04T17:39:14.942Z,16.4
2022-10-04T17:41:47.660Z,16.3
2022-10-04T17:44:18.932Z,16.3
2022-10-04T17:46:51.264Z,16
2022-10-04T17:49:23.932Z,16.1
2022-10-04T17:51:55.408Z,16.1
2022-10-04T17:54:30.790Z,16
2022-10-04T17:57:02.323Z,16.1
2022-10-04T17:59:34.462Z,15.9
2022-10-04T18:02:06.942Z,16
2022-10-04T18:04:39.544Z,16
2022-10-04T18:07:11.691Z,15.9
2022-10-04T18:09:43.828Z,15.7
2022-10-04T18:12:15.871Z,15.8
2022-10-04T18:14:47.850Z,15.8
2022-10-04T18:17:17.386Z,15.7
2022-10-04T18:19:49.253Z,15.7
2022-10-04T18:22:22.705Z,15.7
2022-10-04T18:24:54.157Z,15.8
2022-10-04T18:27:25.331Z,15.7
2022-10-04T18:29:57.047Z,15.6
2022-10-04T18:32:31.143Z,15.7
2022-10-04T18:35:04.766Z,15.6
2022-10-04T18:37:37.240Z,15.5
2022-10-04T18:40:09.098Z,15.5
2022-10-04T18:42:40.078Z,15.7
2022-10-04T18:45:10.265Z,15.6
2022-10-04T18:47:42.681Z,15.5
2022-10-04T18:50:14.567Z,15.5
2022-10-04T18:52:46.280Z,15.7
2022-10-04T18:55:18.368Z,15.7
2022-10-04T18:57:51.435Z,15.6
2022-10-04T19:00:25.314Z,15.6
2022-10-04T19:02:57.947Z,15.5
2022-10-04T19:05:30.394Z,15.5
2022-10-04T19:08:02.975Z,15.4
2022-10-04T19:10:35.001Z,15.4
2022-10-04T19:13:06.792Z,15.3
2022-10-04T19:15:39.037Z,15.4
2022-10-04T19:18:10.189Z,15.2
2022-10-04T19:20:41.424Z,15.2
2022-10-04T19:23:13.323Z,15.2
2022-10-04T19:25:57.419Z,15.1
2022-10-04T19:28:16.534Z,15
2022-10-04T19:30:47.525Z,15
2022-10-04T19:33:19.868Z,15.1
2022-10-04T19:35:53.496Z,14.8
2022-10-04T19:38:25.793Z,14.9
2022-10-04T19:40:55.805Z,14.9
2022-10-04T19:43:27.172Z,14.8
2022-10-04T19:45:59.186Z,14.6
2022-10-04T19:48:31.022Z,14.6
2022-10-04T19:51:03.184Z,14.5
2022-10-04T19:53:34.836Z,14.5
2022-10-04T19:56:04.782Z,14.6
2022-10-04T19:58:39.770Z,14.5
2022-10-04T20:01:11.800Z,14.6
2022-10-04T20:03:40.872Z,15.1
2022-10-04T20:06:15.627Z,15
2022-10-04T20:08:47.007Z,14.8
2022-10-04T20:11:19.194Z,14.7
2022-10-04T20:13:51.506Z,14.5
2022-10-04T20:16:23.241Z,14.5
2022-10-04T20:18:55.838Z,14.2
2022-10-04T20:21:28.902Z,14.3
2022-10-04T20:24:00.506Z,14.2
2022-10-04T20:26:33.146Z,14.2
2022-10-04T20:29:04.560Z,14.1
2022-10-04T20:31:35.825Z,14
2022-10-04T20:34:08.249Z,14
2022-10-04T20:36:39.777Z,13.9
2022-10-04T20:39:11.130Z,13.9
2022-10-04T20:41:44.390Z,13.8
2022-10-04T20:44:15.978Z,13.9
2022-10-04T20:46:48.307Z,13.8
2022-10-04T20:49:20.799Z,13.8
2022-10-04T20:51:52.094Z,13.7
2022-10-04T20:54:23.063Z,13.8
2022-10-04T20:56:54.648Z,13.8
2022-10-04T20:59:26.271Z,13.7
2022-10-04T21:01:59.872Z,13.6
2022-10-04T21:04:31.506Z,13.6
2022-10-04T21:07:03.076Z,13.6
2022-10-04T21:09:35.043Z,13.6
2022-10-04T21:12:06.777Z,13.5
2022-10-04T21:14:37.332Z,13.5
2022-10-04T21:17:09.099Z,13.5
2022-10-04T21:19:40.478Z,13.4
2022-10-04T21:22:11.994Z,13.4
2022-10-04T21:24:44.056Z,13.4
2022-10-04T21:27:16.197Z,13.4
2022-10-04T21:29:47.470Z,13.3
2022-10-04T21:32:19.221Z,13.3
2022-10-04T21:34:53.341Z,13.3
2022-10-04T21:37:20.505Z,13.3
2022-10-04T21:39:52.248Z,13.2
2022-10-04T21:42:24.142Z,13.1
2022-10-04T21:44:55.610Z,13.1
2022-10-04T21:47:28.610Z,12.9
2022-10-04T21:50:00.052Z,13
2022-10-04T21:52:31.930Z,13
2022-10-04T21:55:05.316Z,13
2022-10-04T21:57:37.272Z,13
2022-10-04T22:00:14.267Z,12.9
2022-10-04T22:02:46.712Z,12.9
2022-10-04T22:05:17.848Z,13
2022-10-04T22:07:49.386Z,12.9
2022-10-04T22:10:20.613Z,12.9
2022-10-04T22:12:52.039Z,12.9
2022-10-04T22:15:25.097Z,12.8
2022-10-04T22:17:56.458Z,12.8
2022-10-04T22:20:28.403Z,12.8
2022-10-04T22:22:59.619Z,12.8
2022-10-04T22:25:31.999Z,12.7
2022-10-04T22:28:02.869Z,12.7
2022-10-04T22:30:34.181Z,12.7
2022-10-04T22:33:05.213Z,12.7
2022-10-04T22:35:36.769Z,12.6
2022-10-04T22:38:07.913Z,12.6
2022-10-04T22:40:39.247Z,12.4
2022-10-04T22:43:10.249Z,12.4
2022-10-04T22:45:41.534Z,12.4
2022-10-04T22:48:12.090Z,12.4
2022-10-04T22:50:43.628Z,12.4
2022-10-04T22:53:17.154Z,12.4
2022-10-04T22:55:48.136Z,12.4
2022-10-04T22:58:19.226Z,12.3
2022-10-04T23:00:51.595Z,12.3
2022-10-04T23:03:22.885Z,12.3
2022-10-04T23:05:53.583Z,12.3
2022-10-04T23:08:24.725Z,12.1
2022-10-04T23:10:56.305Z,12.1
2022-10-04T23:13:26.767Z,12
2022-10-04T23:15:59.013Z,12.1
2022-10-04T23:18:30.862Z,12.1
2022-10-04T23:21:05.592Z,12.3
2022-10-04T23:23:36.687Z,12.1
2022-10-04T23:26:10.546Z,12.1
2022-10-04T23:28:41.936Z,12.1
2022-10-04T23:31:13.492Z,12.1
2022-10-04T23:33:43.918Z,12
2022-10-04T23:36:14.849Z,12.1
2022-10-04T23:38:46.705Z,12.1
2022-10-04T23:41:15.751Z,12
2022-10-04T23:43:47.291Z,12
2022-10-04T23:46:19.576Z,11.9
2022-10-04T23:48:51.379Z,11.9
2022-10-04T23:51:23.812Z,11.9
2022-10-04T23:53:55.551Z,11.9
2022-10-04T23:56:27.579Z,11.9
2022-10-04T23:58:58.859Z,11.8
